Lodz Lublinek Airport Lodz Lublinek PL
ICAO: EPLL
IATA: LCJ
Category: Medium
Scheduled Services: Yes

Elevation: 604 ft
TransAlt. 6562 ft.

Airport Communications:
INFO:122.7
TWR:124.225

EPLL Zoom In..

If you have problems with the map follow the link
https://www.worldairports.se/pages/airport.php?
ICAO=EPLL

Runways:

(A) RW 07 length 8202 ft width 148 ft
---- / hdg 66

(B) RW 25 length 8202 ft width 148 ft
ILS 110.50 / hdg 246

Location; EPLL
Day. 05 / Time. 14.30 Zulu
* QNH: 1020
* Temperature: 01° c. 33.8°f.
* Wind from: 230° Speed 07 kn.
Dewpoint: -04° c.
Visibility: 10 km or more,
No clouds below 1,500 m.
No cumulonimbus, and no significant weather
fenomena in the aerodrome or its vicinity.

EPLL 051430Z 23007KT CAVOK 01/M04 Q1020


Wind From 230°
Speed 07 kn.

 
 
jpsmedia worldairports.se 2019   terms of use